sensor_id;sensor_type;location;lat;lon;timestamp;pressure;altitude;pressure_sealevel;temperature;humidity
72896;BME280;61036;53.224;6.554;2023-04-15T00:01:08;101087.13;;;7.71;100.00
72896;BME280;61036;53.224;6.554;2023-04-15T00:03:34;101091.91;;;7.66;100.00
72896;BME280;61036;53.224;6.554;2023-04-15T00:06:00;101093.78;;;7.79;100.00
72896;BME280;61036;53.224;6.554;2023-04-15T00:08:26;101087.03;;;7.72;100.00
72896;BME280;61036;53.224;6.554;2023-04-15T00:10:51;101087.81;;;7.74;100.00
72896;BME280;61036;53.224;6.554;2023-04-15T00:13:17;101089.81;;;7.71;100.00
72896;BME280;61036;53.224;6.554;2023-04-15T00:15:43;101092.69;;;7.68;100.00
72896;BME280;61036;53.224;6.554;2023-04-15T00:18:08;101095.00;;;7.74;100.00
72896;BME280;61036;53.224;6.554;2023-04-15T00:20:34;101091.66;;;7.70;100.00
72896;BME280;61036;53.224;6.554;2023-04-15T00:23:01;101096.59;;;7.62;100.00
72896;BME280;61036;53.224;6.554;2023-04-15T00:25:28;101102.94;;;7.61;100.00
72896;BME280;61036;53.224;6.554;2023-04-15T00:27:53;101094.59;;;7.66;100.00
72896;BME280;61036;53.224;6.554;2023-04-15T00:30:19;101096.31;;;7.67;100.00
72896;BME280;61036;53.224;6.554;2023-04-15T00:32:44;101097.63;;;7.60;100.00
72896;BME280;61036;53.224;6.554;2023-04-15T00:35:11;101097.16;;;7.37;100.00
72896;BME280;61036;53.224;6.554;2023-04-15T00:37:36;101099.56;;;7.42;100.00
72896;BME280;61036;53.224;6.554;2023-04-15T00:40:02;101095.91;;;7.59;100.00
72896;BME280;61036;53.224;6.554;2023-04-15T00:42:30;101094.78;;;7.63;100.00
72896;BME280;61036;53.224;6.554;2023-04-15T00:44:56;101100.06;;;7.64;100.00
72896;BME280;61036;53.224;6.554;2023-04-15T00:47:21;101110.97;;;7.61;100.00
72896;BME280;61036;53.224;6.554;2023-04-15T00:49:47;101118.16;;;7.45;100.00
72896;BME280;61036;53.224;6.554;2023-04-15T00:52:13;101101.91;;;7.48;100.00
72896;BME280;61036;53.224;6.554;2023-04-15T00:54:39;101116.53;;;7.42;100.00
72896;BME280;61036;53.224;6.554;2023-04-15T00:57:07;101114.91;;;7.70;100.00
72896;BME280;61036;53.224;6.554;2023-04-15T00:59:35;101114.66;;;7.74;100.00
72896;BME280;61036;53.224;6.554;2023-04-15T01:02:00;101105.63;;;7.61;100.00
72896;BME280;61036;53.224;6.554;2023-04-15T01:04:26;101109.06;;;7.63;100.00
72896;BME280;61036;53.224;6.554;2023-04-15T01:06:52;101105.75;;;7.58;100.00
72896;BME280;61036;53.224;6.554;2023-04-15T01:09:17;101103.97;;;7.59;100.00
72896;BME280;61036;53.224;6.554;2023-04-15T01:11:43;101111.91;;;7.60;100.00
72896;BME280;61036;53.224;6.554;2023-04-15T01:14:09;101108.63;;;7.55;100.00
72896;BME280;61036;53.224;6.554;2023-04-15T01:16:36;101114.59;;;7.60;100.00
72896;BME280;61036;53.224;6.554;2023-04-15T01:19:08;101117.47;;;7.57;100.00
72896;BME280;61036;53.224;6.554;2023-04-15T01:21:38;101114.53;;;7.62;100.00
72896;BME280;61036;53.224;6.554;2023-04-15T01:24:12;101125.25;;;7.46;100.00
72896;BME280;61036;53.224;6.554;2023-04-15T01:26:38;101129.16;;;7.24;100.00
72896;BME280;61036;53.224;6.554;2023-04-15T01:29:06;101125.97;;;7.18;100.00
72896;BME280;61036;53.224;6.554;2023-04-15T01:31:32;101123.09;;;7.37;100.00
72896;BME280;61036;53.224;6.554;2023-04-15T01:33:58;101124.56;;;7.42;100.00
72896;BME280;61036;53.224;6.554;2023-04-15T01:36:24;101117.84;;;7.35;100.00
72896;BME280;61036;53.224;6.554;2023-04-15T01:38:52;101124.25;;;7.32;100.00
72896;BME280;61036;53.224;6.554;2023-04-15T01:41:29;101121.22;;;7.39;100.00
72896;BME280;61036;53.224;6.554;2023-04-15T01:43:55;101133.84;;;7.21;100.00
72896;BME280;61036;53.224;6.554;2023-04-15T01:46:21;101121.28;;;7.21;100.00
72896;BME280;61036;53.224;6.554;2023-04-15T01:48:46;101119.13;;;7.12;100.00
72896;BME280;61036;53.224;6.554;2023-04-15T01:51:12;101122.59;;;7.14;100.00
72896;BME280;61036;53.224;6.554;2023-04-15T01:53:37;101126.50;;;7.08;100.00
72896;BME280;61036;53.224;6.554;2023-04-15T01:56:03;101124.59;;;7.10;100.00
72896;BME280;61036;53.224;6.554;2023-04-15T01:58:29;101128.31;;;7.08;100.00
72896;BME280;61036;53.224;6.554;2023-04-15T02:00:55;101131.22;;;7.03;100.00
72896;BME280;61036;53.224;6.554;2023-04-15T02:03:22;101129.59;;;7.01;100.00
72896;BME280;61036;53.224;6.554;2023-04-15T02:05:47;101129.41;;;7.04;100.00
72896;BME280;61036;53.224;6.554;2023-04-15T02:08:13;101131.22;;;7.03;100.00
72896;BME280;61036;53.224;6.554;2023-04-15T02:10:39;101126.91;;;7.01;100.00
72896;BME280;61036;53.224;6.554;2023-04-15T02:13:04;101129.59;;;7.01;100.00
72896;BME280;61036;53.224;6.554;2023-04-15T02:15:30;101132.78;;;6.92;100.00
72896;BME280;61036;53.224;6.554;2023-04-15T02:17:55;101130.25;;;6.88;100.00
72896;BME280;61036;53.224;6.554;2023-04-15T02:20:21;101131.91;;;6.91;100.00
72896;BME280;61036;53.224;6.554;2023-04-15T02:22:48;101136.69;;;6.86;100.00
72896;BME280;61036;53.224;6.554;2023-04-15T02:25:14;101134.41;;;6.78;100.00
72896;BME280;61036;53.224;6.554;2023-04-15T02:27:41;101139.94;;;6.75;100.00
72896;BME280;61036;53.224;6.554;2023-04-15T02:30:07;101143.63;;;6.73;100.00
72896;BME280;61036;53.224;6.554;2023-04-15T02:32:33;101147.97;;;6.75;100.00
72896;BME280;61036;53.224;6.554;2023-04-15T02:35:03;101150.09;;;6.86;100.00
72896;BME280;61036;53.224;6.554;2023-04-15T02:37:31;101150.50;;;6.78;100.00
72896;BME280;61036;53.224;6.554;2023-04-15T02:39:56;101151.94;;;6.68;100.00
72896;BME280;61036;53.224;6.554;2023-04-15T02:42:22;101155.81;;;6.62;100.00
72896;BME280;61036;53.224;6.554;2023-04-15T02:44:51;101158.34;;;6.66;100.00
72896;BME280;61036;53.224;6.554;2023-04-15T02:47:19;101166.38;;;6.66;100.00
72896;BME280;61036;53.224;6.554;2023-04-15T02:49:44;101163.91;;;6.61;100.00
72896;BME280;61036;53.224;6.554;2023-04-15T02:52:10;101171.72;;;6.66;100.00
72896;BME280;61036;53.224;6.554;2023-04-15T02:54:35;101169.44;;;6.58;100.00
72896;BME280;61036;53.224;6.554;2023-04-15T02:57:01;101173.94;;;6.57;100.00
72896;BME280;61036;53.224;6.554;2023-04-15T02:59:27;101178.66;;;6.52;100.00
72896;BME280;61036;53.224;6.554;2023-04-15T03:01:52;101181.13;;;6.57;100.00
72896;BME280;61036;53.224;6.554;2023-04-15T03:04:18;101177.09;;;6.48;100.00
72896;BME280;61036;53.224;6.554;2023-04-15T03:06:43;101184.13;;;6.51;100.00
72896;BME280;61036;53.224;6.554;2023-04-15T03:09:09;101186.81;;;6.51;100.00
72896;BME280;61036;53.224;6.554;2023-04-15T03:11:35;101180.91;;;6.44;100.00
72896;BME280;61036;53.224;6.554;2023-04-15T03:14:06;101185.69;;;6.37;100.00
72896;BME280;61036;53.224;6.554;2023-04-15T03:16:34;101186.66;;;6.36;100.00
72896;BME280;61036;53.224;6.554;2023-04-15T03:18:59;101188.47;;;6.36;100.00
72896;BME280;61036;53.224;6.554;2023-04-15T03:21:25;101190.59;;;6.29;100.00
72896;BME280;61036;53.224;6.554;2023-04-15T03:23:52;101191.31;;;6.33;100.00
72896;BME280;61036;53.224;6.554;2023-04-15T03:26:27;101192.88;;;6.54;100.00
72896;BME280;61036;53.224;6.554;2023-04-15T03:28:56;101193.41;;;6.44;100.00
72896;BME280;61036;53.224;6.554;2023-04-15T03:31:22;101191.22;;;6.34;100.00
72896;BME280;61036;53.224;6.554;2023-04-15T03:33:49;101188.06;;;6.44;100.00
72896;BME280;61036;53.224;6.554;2023-04-15T03:36:15;101193.50;;;6.42;100.00
72896;BME280;61036;53.224;6.554;2023-04-15T03:38:41;101192.31;;;6.30;100.00
72896;BME280;61036;53.224;6.554;2023-04-15T03:41:07;101205.84;;;6.10;100.00
72896;BME280;61036;53.224;6.554;2023-04-15T03:43:33;101199.44;;;6.14;100.00
72896;BME280;61036;53.224;6.554;2023-04-15T03:45:59;101200.44;;;6.11;100.00
72896;BME280;61036;53.224;6.554;2023-04-15T03:48:24;101200.19;;;6.16;100.00
72896;BME280;61036;53.224;6.554;2023-04-15T03:50:50;101201.00;;;6.18;100.00
72896;BME280;61036;53.224;6.554;2023-04-15T03:53:16;101208.56;;;6.27;100.00
72896;BME280;61036;53.224;6.554;2023-04-15T03:55:41;101215.03;;;6.23;100.00
72896;BME280;61036;53.224;6.554;2023-04-15T03:58:07;101207.16;;;6.20;100.00
72896;BME280;61036;53.224;6.554;2023-04-15T04:00:33;101208.00;;;6.21;100.00
72896;BME280;61036;53.224;6.554;2023-04-15T04:02:59;101211.78;;;6.34;100.00
72896;BME280;61036;53.224;6.554;2023-04-15T04:05:24;101214.63;;;6.31;100.00
72896;BME280;61036;53.224;6.554;2023-04-15T04:07:50;101208.78;;;6.23;100.00
72896;BME280;61036;53.224;6.554;2023-04-15T04:10:15;101209.50;;;6.09;100.00
72896;BME280;61036;53.224;6.554;2023-04-15T04:12:41;101216.22;;;5.99;100.00
72896;BME280;61036;53.224;6.554;2023-04-15T04:15:07;101213.88;;;6.10;100.00
72896;BME280;61036;53.224;6.554;2023-04-15T04:17:32;101226.56;;;6.06;100.00
72896;BME280;61036;53.224;6.554;2023-04-15T04:20:00;101224.84;;;6.05;100.00
72896;BME280;61036;53.224;6.554;2023-04-15T04:22:25;101226.78;;;6.02;100.00
72896;BME280;61036;53.224;6.554;2023-04-15T04:24:51;101229.84;;;5.94;100.00
72896;BME280;61036;53.224;6.554;2023-04-15T04:27:16;101231.69;;;5.92;100.00
72896;BME280;61036;53.224;6.554;2023-04-15T04:29:42;101234.97;;;5.99;100.00
72896;BME280;61036;53.224;6.554;2023-04-15T04:32:07;101235.78;;;6.01;100.00
72896;BME280;61036;53.224;6.554;2023-04-15T04:34:33;101233.34;;;5.96;100.00
72896;BME280;61036;53.224;6.554;2023-04-15T04:36:58;101235.91;;;5.98;100.00
72896;BME280;61036;53.224;6.554;2023-04-15T04:39:24;101238.53;;;5.99;100.00
72896;BME280;61036;53.224;6.554;2023-04-15T04:41:49;101242.41;;;5.92;100.00
72896;BME280;61036;53.224;6.554;2023-04-15T04:44:16;101236.19;;;5.91;100.00
72896;BME280;61036;53.224;6.554;2023-04-15T04:46:42;101239.41;;;6.00;100.00
72896;BME280;61036;53.224;6.554;2023-04-15T04:49:08;101247.03;;;6.07;100.00
72896;BME280;61036;53.224;6.554;2023-04-15T04:51:34;101244.59;;;6.03;100.00
72896;BME280;61036;53.224;6.554;2023-04-15T04:54:00;101249.00;;;6.04;100.00
72896;BME280;61036;53.224;6.554;2023-04-15T04:56:26;101244.44;;;6.06;100.00
72896;BME280;61036;53.224;6.554;2023-04-15T04:58:51;101250.50;;;6.09;100.00
72896;BME280;61036;53.224;6.554;2023-04-15T05:01:17;101246.81;;;6.12;100.00
72896;BME280;61036;53.224;6.554;2023-04-15T05:03:43;101248.38;;;6.16;100.00
72896;BME280;61036;53.224;6.554;2023-04-15T05:06:08;101243.13;;;6.14;100.00
72896;BME280;61036;53.224;6.554;2023-04-15T05:08:34;101243.91;;;6.16;100.00
72896;BME280;61036;53.224;6.554;2023-04-15T05:10:59;101250.00;;;6.20;100.00
72896;BME280;61036;53.224;6.554;2023-04-15T05:13:25;101245.34;;;6.24;100.00
72896;BME280;61036;53.224;6.554;2023-04-15T05:15:50;101249.22;;;6.35;100.00
72896;BME280;61036;53.224;6.554;2023-04-15T05:18:16;101247.41;;;6.36;100.00
72896;BME280;61036;53.224;6.554;2023-04-15T05:20:41;101253.09;;;6.47;100.00
72896;BME280;61036;53.224;6.554;2023-04-15T05:23:07;101258.72;;;6.58;100.00
72896;BME280;61036;53.224;6.554;2023-04-15T05:25:32;101257.31;;;6.69;100.00
72896;BME280;61036;53.224;6.554;2023-04-15T05:27:58;101269.66;;;6.88;100.00
72896;BME280;61036;53.224;6.554;2023-04-15T05:30:24;101267.66;;;7.09;100.00
72896;BME280;61036;53.224;6.554;2023-04-15T05:32:50;101256.25;;;7.22;100.00
72896;BME280;61036;53.224;6.554;2023-04-15T05:38:03;101265.13;;;7.40;100.00
72896;BME280;61036;53.224;6.554;2023-04-15T05:40:41;101274.88;;;7.74;100.00
72896;BME280;61036;53.224;6.554;2023-04-15T05:43:27;101274.69;;;7.93;100.00
72896;BME280;61036;53.224;6.554;2023-04-15T05:46:13;101283.59;;;8.09;100.00
72896;BME280;61036;53.224;6.554;2023-04-15T05:48:59;101284.88;;;8.34;100.00
72896;BME280;61036;53.224;6.554;2023-04-15T05:51:46;101286.19;;;8.42;100.00
72896;BME280;61036;53.224;6.554;2023-04-15T05:54:32;101284.09;;;8.47;100.00
72896;BME280;61036;53.224;6.554;2023-04-15T05:57:04;101281.53;;;8.60;100.00
72896;BME280;61036;53.224;6.554;2023-04-15T05:59:50;101287.16;;;8.86;100.00
72896;BME280;61036;53.224;6.554;2023-04-15T06:02:41;101289.38;;;8.79;100.00
72896;BME280;61036;53.224;6.554;2023-04-15T06:05:27;101294.06;;;8.76;100.00
72896;BME280;61036;53.224;6.554;2023-04-15T06:08:13;101300.56;;;8.72;100.00
72896;BME280;61036;53.224;6.554;2023-04-15T06:10:46;101307.34;;;8.63;100.00
72896;BME280;61036;53.224;6.554;2023-04-15T06:13:31;101307.72;;;8.73;100.00
72896;BME280;61036;53.224;6.554;2023-04-15T06:16:17;101318.78;;;8.82;100.00
72896;BME280;61036;53.224;6.554;2023-04-15T06:19:03;101311.63;;;8.81;100.00
72896;BME280;61036;53.224;6.554;2023-04-15T06:21:49;101319.66;;;8.97;100.00
72896;BME280;61036;53.224;6.554;2023-04-15T06:24:35;101322.75;;;9.20;100.00
72896;BME280;61036;53.224;6.554;2023-04-15T06:27:21;101321.63;;;9.38;100.00
72896;BME280;61036;53.224;6.554;2023-04-15T06:30:08;101323.84;;;9.60;100.00
72896;BME280;61036;53.224;6.554;2023-04-15T06:32:40;101326.03;;;9.53;100.00
72896;BME280;61036;53.224;6.554;2023-04-15T06:35:25;101326.91;;;9.82;100.00
72896;BME280;61036;53.224;6.554;2023-04-15T06:38:11;101333.34;;;9.94;100.00
72896;BME280;61036;53.224;6.554;2023-04-15T06:40:45;101335.19;;;9.79;100.00
72896;BME280;61036;53.224;6.554;2023-04-15T06:43:30;101339.16;;;10.15;100.00
72896;BME280;61036;53.224;6.554;2023-04-15T06:46:17;101338.38;;;10.27;100.00
72896;BME280;61036;53.224;6.554;2023-04-15T06:49:03;101350.47;;;10.35;100.00
72896;BME280;61036;53.224;6.554;2023-04-15T06:51:36;101342.50;;;10.33;100.00
72896;BME280;61036;53.224;6.554;2023-04-15T06:54:21;101354.78;;;10.51;100.00
72896;BME280;61036;53.224;6.554;2023-04-15T06:57:07;101354.97;;;10.75;100.00
72896;BME280;61036;53.224;6.554;2023-04-15T06:59:39;101351.81;;;10.69;100.00
72896;BME280;61036;53.224;6.554;2023-04-15T07:02:25;101351.31;;;10.49;100.00
72896;BME280;61036;53.224;6.554;2023-04-15T07:05:12;101354.41;;;10.70;100.00
72896;BME280;61036;53.224;6.554;2023-04-15T07:07:57;101354.41;;;10.70;100.00
72896;BME280;61036;53.224;6.554;2023-04-15T07:10:45;101353.88;;;10.78;100.00
72896;BME280;61036;53.224;6.554;2023-04-15T07:13:31;101361.13;;;10.78;100.00
72896;BME280;61036;53.224;6.554;2023-04-15T07:16:17;101350.53;;;10.74;100.00
72896;BME280;61036;53.224;6.554;2023-04-15T07:19:03;101362.22;;;10.88;100.00
72896;BME280;61036;53.224;6.554;2023-04-15T07:21:50;101370.03;;;10.92;100.00
72896;BME280;61036;53.224;6.554;2023-04-15T07:24:35;101375.41;;;10.92;100.00
72896;BME280;61036;53.224;6.554;2023-04-15T07:27:21;101381.03;;;11.02;100.00
72896;BME280;61036;53.224;6.554;2023-04-15T07:30:08;101386.66;;;10.99;100.00
72896;BME280;61036;53.224;6.554;2023-04-15T07:32:53;101380.03;;;10.90;100.00
72896;BME280;61036;53.224;6.554;2023-04-15T07:35:39;101384.44;;;10.79;100.00
72896;BME280;61036;53.224;6.554;2023-04-15T07:38:12;101381.56;;;10.67;100.00
72896;BME280;61036;53.224;6.554;2023-04-15T07:40:57;101381.22;;;10.86;100.00
72896;BME280;61036;53.224;6.554;2023-04-15T07:43:30;101395.22;;;10.51;100.00
72896;BME280;61036;53.224;6.554;2023-04-15T07:46:15;101387.13;;;10.79;100.00
72896;BME280;61036;53.224;6.554;2023-04-15T07:49:04;101394.59;;;10.88;100.00
72896;BME280;61036;53.224;6.554;2023-04-15T07:51:50;101387.38;;;10.88;100.00
72896;BME280;61036;53.224;6.554;2023-04-15T07:54:23;101396.81;;;10.41;100.00
72896;BME280;61036;53.224;6.554;2023-04-15T07:57:08;101403.75;;;10.58;100.00
72896;BME280;61036;53.224;6.554;2023-04-15T07:59:41;101396.94;;;10.80;100.00
72896;BME280;61036;53.224;6.554;2023-04-15T08:02:26;101403.88;;;10.84;100.00
72896;BME280;61036;53.224;6.554;2023-04-15T08:04:59;101399.03;;;10.62;100.00
72896;BME280;61036;53.224;6.554;2023-04-15T08:07:44;101401.38;;;10.53;100.00
72896;BME280;61036;53.224;6.554;2023-04-15T08:10:42;101404.91;;;10.68;100.00
72896;BME280;61036;53.224;6.554;2023-04-15T08:13:29;101413.31;;;10.49;100.00
72896;BME280;61036;53.224;6.554;2023-04-15T08:19:03;101411.72;;;10.18;100.00
72896;BME280;61036;53.224;6.554;2023-04-15T08:21:50;101419.81;;;10.04;100.00
72896;BME280;61036;53.224;6.554;2023-04-15T08:24:35;101415.94;;;10.22;100.00
72896;BME280;61036;53.224;6.554;2023-04-15T08:27:21;101425.09;;;10.20;100.00
72896;BME280;61036;53.224;6.554;2023-04-15T08:30:08;101423.56;;;10.16;100.00
72896;BME280;61036;53.224;6.554;2023-04-15T08:32:48;101417.13;;;10.18;100.00
72896;BME280;61036;53.224;6.554;2023-04-15T08:35:34;101423.38;;;10.04;100.00
72896;BME280;61036;53.224;6.554;2023-04-15T08:38:20;101430.03;;;9.99;100.00
72896;BME280;61036;53.224;6.554;2023-04-15T08:41:11;101424.94;;;9.94;100.00
72896;BME280;61036;53.224;6.554;2023-04-15T08:44:03;101421.19;;;9.97;100.00
72896;BME280;61036;53.224;6.554;2023-04-15T08:46:50;101426.75;;;10.37;100.00
72896;BME280;61036;53.224;6.554;2023-04-15T08:49:25;101425.50;;;10.28;100.00
72896;BME280;61036;53.224;6.554;2023-04-15T08:52:12;101428.78;;;10.33;100.00
72896;BME280;61036;53.224;6.554;2023-04-15T08:54:59;101417.91;;;10.20;100.00
72896;BME280;61036;53.224;6.554;2023-04-15T08:57:46;101414.88;;;10.25;100.00
72896;BME280;61036;53.224;6.554;2023-04-15T09:00:25;101423.44;;;10.46;100.00
72896;BME280;61036;53.224;6.554;2023-04-15T09:03:12;101433.50;;;10.15;100.00
72896;BME280;61036;53.224;6.554;2023-04-15T09:05:51;101439.25;;;10.09;100.00
72896;BME280;61036;53.224;6.554;2023-04-15T09:08:37;101440.91;;;9.97;100.00
72896;BME280;61036;53.224;6.554;2023-04-15T09:11:23;101437.81;;;10.18;100.00
72896;BME280;61036;53.224;6.554;2023-04-15T09:14:10;101446.75;;;10.04;100.00
72896;BME280;61036;53.224;6.554;2023-04-15T09:19:42;101454.09;;;10.45;100.00
72896;BME280;61036;53.224;6.554;2023-04-15T09:22:32;101460.53;;;10.42;100.00
72896;BME280;61036;53.224;6.554;2023-04-15T09:25:25;101446.59;;;10.36;100.00
72896;BME280;61036;53.224;6.554;2023-04-15T09:28:11;101451.78;;;10.39;100.00
72896;BME280;61036;53.224;6.554;2023-04-15T09:30:44;101448.88;;;10.56;100.00
72896;BME280;61036;53.224;6.554;2023-04-15T09:33:30;101455.25;;;10.68;100.00
72896;BME280;61036;53.224;6.554;2023-04-15T09:36:16;101465.19;;;10.67;100.00
72896;BME280;61036;53.224;6.554;2023-04-15T09:39:02;101464.56;;;10.49;100.00
72896;BME280;61036;53.224;6.554;2023-04-15T09:42:05;101469.84;;;10.92;100.00
72896;BME280;61036;53.224;6.554;2023-04-15T09:44:52;101465.72;;;11.14;100.00
72896;BME280;61036;53.224;6.554;2023-04-15T09:47:31;101467.66;;;10.85;100.00
72896;BME280;61036;53.224;6.554;2023-04-15T09:50:21;101471.47;;;10.95;100.00
72896;BME280;61036;53.224;6.554;2023-04-15T09:53:09;101478.53;;;10.56;100.00
72896;BME280;61036;53.224;6.554;2023-04-15T09:55:50;101473.78;;;10.74;100.00
72896;BME280;61036;53.224;6.554;2023-04-15T09:58:36;101472.34;;;10.68;100.00
72896;BME280;61036;53.224;6.554;2023-04-15T10:06:14;101479.31;;;10.85;100.00
72896;BME280;61036;53.224;6.554;2023-04-15T10:08:40;101485.22;;;10.78;100.00
72896;BME280;61036;53.224;6.554;2023-04-15T10:11:07;101479.75;;;10.92;100.00
72896;BME280;61036;53.224;6.554;2023-04-15T10:13:33;101484.25;;;10.79;100.00
72896;BME280;61036;53.224;6.554;2023-04-15T10:16:10;101489.81;;;10.90;100.00
72896;BME280;61036;53.224;6.554;2023-04-15T10:18:46;101489.03;;;10.88;100.00
72896;BME280;61036;53.224;6.554;2023-04-15T10:21:13;101491.03;;;10.71;100.00
72896;BME280;61036;53.224;6.554;2023-04-15T10:23:44;101493.66;;;10.44;100.00
72896;BME280;61036;53.224;6.554;2023-04-15T10:26:11;101496.91;;;10.49;100.00
72896;BME280;61036;53.224;6.554;2023-04-15T10:28:37;101490.66;;;10.49;100.00
72896;BME280;61036;53.224;6.554;2023-04-15T10:31:03;101501.59;;;10.74;100.00
72896;BME280;61036;53.224;6.554;2023-04-15T10:33:30;101501.91;;;10.97;100.00
72896;BME280;61036;53.224;6.554;2023-04-15T10:35:56;101493.13;;;10.81;100.00
72896;BME280;61036;53.224;6.554;2023-04-15T10:41:19;101499.50;;;10.65;100.00
72896;BME280;61036;53.224;6.554;2023-04-15T10:44:09;101505.78;;;10.37;100.00
72896;BME280;61036;53.224;6.554;2023-04-15T10:46:40;101514.53;;;10.41;100.00
72896;BME280;61036;53.224;6.554;2023-04-15T10:49:14;101509.13;;;10.69;100.00
72896;BME280;61036;53.224;6.554;2023-04-15T10:51:43;101502.88;;;10.55;100.00
72896;BME280;61036;53.224;6.554;2023-04-15T10:54:14;101515.16;;;10.87;100.00
72896;BME280;61036;53.224;6.554;2023-04-15T10:56:50;101509.78;;;10.73;100.00
72896;BME280;61036;53.224;6.554;2023-04-15T10:59:16;101517.53;;;10.50;100.00
72896;BME280;61036;53.224;6.554;2023-04-15T11:02:14;101521.31;;;10.89;100.00
72896;BME280;61036;53.224;6.554;2023-04-15T11:04:58;101520.13;;;10.66;100.00
72896;BME280;61036;53.224;6.554;2023-04-15T11:13:01;101528.28;;;10.65;100.00
72896;BME280;61036;53.224;6.554;2023-04-15T11:17:53;101534.88;;;10.46;100.00
72896;BME280;61036;53.224;6.554;2023-04-15T11:20:19;101539.84;;;10.81;100.00
72896;BME280;61036;53.224;6.554;2023-04-15T11:22:49;101535.50;;;11.20;100.00
72896;BME280;61036;53.224;6.554;2023-04-15T11:25:26;101535.03;;;11.13;100.00
72896;BME280;61036;53.224;6.554;2023-04-15T11:27:53;101551.47;;;10.96;100.00
72896;BME280;61036;53.224;6.554;2023-04-15T11:30:21;101549.66;;;10.82;100.00
72896;BME280;61036;53.224;6.554;2023-04-15T11:32:48;101544.44;;;10.93;100.00
72896;BME280;61036;53.224;6.554;2023-04-15T11:35:15;101550.75;;;11.07;100.00
72896;BME280;61036;53.224;6.554;2023-04-15T11:37:41;101553.91;;;10.86;100.00
72896;BME280;61036;53.224;6.554;2023-04-15T11:40:08;101553.63;;;10.76;100.00
72896;BME280;61036;53.224;6.554;2023-04-15T11:42:33;101553.31;;;11.23;100.00
72896;BME280;61036;53.224;6.554;2023-04-15T11:45:07;101555.72;;;11.67;100.00
72896;BME280;61036;53.224;6.554;2023-04-15T11:47:36;101567.63;;;11.10;100.00
72896;BME280;61036;53.224;6.554;2023-04-15T11:50:22;101559.25;;;11.01;100.00
72896;BME280;61036;53.224;6.554;2023-04-15T11:52:54;101558.06;;;10.63;100.00
72896;BME280;61036;53.224;6.554;2023-04-15T11:55:21;101562.88;;;10.44;100.00
72896;BME280;61036;53.224;6.554;2023-04-15T12:00:32;101560.44;;;10.82;100.00
72896;BME280;61036;53.224;6.554;2023-04-15T12:11:43;101572.63;;;10.46;100.00
72896;BME280;61036;53.224;6.554;2023-04-15T12:14:10;101586.72;;;10.21;100.00
72896;BME280;61036;53.224;6.554;2023-04-15T12:16:41;101577.63;;;10.81;100.00
72896;BME280;61036;53.224;6.554;2023-04-15T12:19:14;101576.84;;;10.65;100.00
72896;BME280;61036;53.224;6.554;2023-04-15T12:21:43;101580.25;;;10.54;100.00
72896;BME280;61036;53.224;6.554;2023-04-15T12:24:10;101586.09;;;10.61;100.00
72896;BME280;61036;53.224;6.554;2023-04-15T12:26:48;101594.53;;;10.97;100.00
72896;BME280;61036;53.224;6.554;2023-04-15T12:29:15;101597.66;;;10.34;100.00
72896;BME280;61036;53.224;6.554;2023-04-15T12:34:14;101598.88;;;11.00;100.00
72896;BME280;61036;53.224;6.554;2023-04-15T12:36:40;101603.53;;;10.69;100.00
72896;BME280;61036;53.224;6.554;2023-04-15T12:39:05;101605.47;;;10.67;100.00
72896;BME280;61036;53.224;6.554;2023-04-15T12:41:31;101606.81;;;10.74;100.00
72896;BME280;61036;53.224;6.554;2023-04-15T12:43:57;101609.41;;;10.90;100.00
72896;BME280;61036;53.224;6.554;2023-04-15T12:46:22;101608.53;;;10.61;100.00
72896;BME280;61036;53.224;6.554;2023-04-15T12:48:49;101631.75;;;10.35;100.00
72896;BME280;61036;53.224;6.554;2023-04-15T12:51:15;101622.78;;;10.35;100.00
72896;BME280;61036;53.224;6.554;2023-04-15T12:53:40;101634.63;;;10.32;100.00
72896;BME280;61036;53.224;6.554;2023-04-15T12:56:06;101631.50;;;10.24;100.00
72896;BME280;61036;53.224;6.554;2023-04-15T12:58:32;101633.19;;;10.26;100.00
72896;BME280;61036;53.224;6.554;2023-04-15T13:00:57;101629.19;;;10.18;100.00
72896;BME280;61036;53.224;6.554;2023-04-15T13:03:23;101638.22;;;10.17;100.00
72896;BME280;61036;53.224;6.554;2023-04-15T13:05:48;101642.19;;;10.25;100.00
72896;BME280;61036;53.224;6.554;2023-04-15T13:08:14;101641.28;;;10.11;100.00
72896;BME280;61036;53.224;6.554;2023-04-15T13:10:40;101632.94;;;10.15;100.00
72896;BME280;61036;53.224;6.554;2023-04-15T13:13:07;101644.38;;;10.19;100.00
72896;BME280;61036;53.224;6.554;2023-04-15T13:15:33;101648.72;;;10.21;100.00
72896;BME280;61036;53.224;6.554;2023-04-15T13:17:58;101645.31;;;10.03;100.00
72896;BME280;61036;53.224;6.554;2023-04-15T13:20:24;101648.91;;;10.18;100.00
72896;BME280;61036;53.224;6.554;2023-04-15T13:22:52;101652.41;;;10.20;100.00
72896;BME280;61036;53.224;6.554;2023-04-15T13:25:18;101655.81;;;10.08;100.00
72896;BME280;61036;53.224;6.554;2023-04-15T13:27:43;101667.38;;;10.10;100.00
72896;BME280;61036;53.224;6.554;2023-04-15T13:30:09;101668.19;;;9.96;100.00
72896;BME280;61036;53.224;6.554;2023-04-15T13:32:35;101670.16;;;10.08;100.00
72896;BME280;61036;53.224;6.554;2023-04-15T13:35:00;101670.47;;;9.88;100.00
72896;BME280;61036;53.224;6.554;2023-04-15T13:37:27;101670.94;;;9.65;100.00
72896;BME280;61036;53.224;6.554;2023-04-15T13:39:53;101668.13;;;9.82;100.00
72896;BME280;61036;53.224;6.554;2023-04-15T13:42:18;101666.66;;;9.76;100.00
72896;BME280;61036;53.224;6.554;2023-04-15T13:44:44;101674.38;;;9.82;100.00
72896;BME280;61036;53.224;6.554;2023-04-15T13:47:10;101671.88;;;9.79;100.00
72896;BME280;61036;53.224;6.554;2023-04-15T13:49:36;101673.06;;;9.90;100.00